Time;durP1;ratioP1;P1;durP2;ratioP2;P2;SDS_P1;SDS_P2;PMS_P1;PMS_P2;Temp;Humidity;BMP_temperature;BMP_pressure;BME280_temperature;BME280_humidity;BME280_pressure;Samples;Min_cycle;Max_cycle;Signal;HPM_P1;HPM_P2
2023/04/06 00:00:26;;;;;;;6.30;3.55;;;;;;;;;;5969251;24;20088;-78
2023/04/06 00:02:52;;;;;;;7.95;3.33;;;;;;;;;;5970360;24;20463;-77
2023/04/06 00:05:19;;;;;;;7.32;3.85;;;;;;;;;;5970610;24;20102;-77
2023/04/06 00:07:46;;;;;;;7.43;3.50;;;;;;;;;;5993304;23;20020;-77
2023/04/06 00:10:12;;;;;;;9.18;3.90;;;;;;;;;;5970028;24;20028;-78
2023/04/06 00:12:37;;;;;;;6.30;3.63;;;;;;;;;;5969812;23;20039;-77
2023/04/06 00:15:05;;;;;;;7.88;3.97;;;;;;;;;;5970589;24;20024;-78
2023/04/06 00:17:30;;;;;;;8.20;4.20;;;;;;;;;;5969399;24;20080;-78
2023/04/06 00:19:56;;;;;;;7.43;3.80;;;;;;;;;;5970702;24;20442;-77
2023/04/06 00:22:21;;;;;;;5.82;3.42;;;;;;;;;;5945809;23;20016;-77
2023/04/06 00:24:47;;;;;;;7.07;3.63;;;;;;;;;;5994151;23;20027;-78
2023/04/06 00:27:12;;;;;;;7.07;3.38;;;;;;;;;;5992766;23;20468;-79
2023/04/06 00:29:39;;;;;;;8.18;3.75;;;;;;;;;;5993487;23;20031;-79
2023/04/06 00:32:05;;;;;;;6.38;3.72;;;;;;;;;;5992853;23;20027;-79
2023/04/06 00:34:31;;;;;;;6.00;3.60;;;;;;;;;;6040208;23;20451;-79
2023/04/06 00:36:56;;;;;;;6.30;3.60;;;;;;;;;;6118511;23;20399;-79
2023/04/06 00:39:22;;;;;;;5.75;3.67;;;;;;;;;;6095820;23;20013;-78
2023/04/06 00:41:50;;;;;;;7.28;4.57;;;;;;;;;;6145441;23;20075;-79
2023/04/06 00:44:16;;;;;;;5.53;3.50;;;;;;;;;;6121460;23;20025;-79
2023/04/06 00:46:41;;;;;;;7.20;3.55;;;;;;;;;;6119938;23;20100;-79
2023/04/06 00:49:06;;;;;;;10.38;4.07;;;;;;;;;;6119187;23;20013;-79
2023/04/06 00:51:32;;;;;;;7.45;3.72;;;;;;;;;;6145072;23;20009;-79
2023/04/06 00:53:57;;;;;;;7.30;3.75;;;;;;;;;;6119352;23;20074;-79
2023/04/06 00:56:23;;;;;;;6.25;3.30;;;;;;;;;;6145351;23;20017;-79
2023/04/06 00:58:50;;;;;;;7.25;3.75;;;;;;;;;;6091901;23;20019;-78
2023/04/06 01:01:15;;;;;;;6.65;4.07;;;;;;;;;;6115211;23;20021;-78
2023/04/06 01:03:42;;;;;;;5.45;3.50;;;;;;;;;;6119741;23;20013;-79
2023/04/06 01:06:07;;;;;;;7.70;4.00;;;;;;;;;;6144912;23;20713;-78
2023/04/06 01:08:33;;;;;;;8.35;3.58;;;;;;;;;;6095425;23;20021;-78
2023/04/06 01:11:00;;;;;;;6.55;3.47;;;;;;;;;;6145171;23;20347;-78
2023/04/06 01:13:26;;;;;;;;;;;;;;;;;;6145421;23;20083;-78
2023/04/06 01:15:51;;;;;;;5.78;3.40;;;;;;;;;;6168930;23;19987;-78
2023/04/06 01:18:17;;;;;;;9.10;3.50;;;;;;;;;;6119594;23;20017;-79
2023/04/06 01:20:43;;;;;;;8.73;4.78;;;;;;;;;;6118596;23;20013;-78
2023/04/06 01:23:08;;;;;;;8.25;3.72;;;;;;;;;;6145410;23;20020;-79
2023/04/06 01:25:34;;;;;;;7.13;3.83;;;;;;;;;;6144787;23;20009;-79
2023/04/06 01:27:59;;;;;;;7.38;3.75;;;;;;;;;;6119520;23;20025;-78
2023/04/06 01:30:25;;;;;;;8.00;3.90;;;;;;;;;;6119337;23;20085;-79
2023/04/06 01:32:50;;;;;;;6.43;3.88;;;;;;;;;;6119059;23;20400;-78
2023/04/06 01:35:18;;;;;;;7.15;4.00;;;;;;;;;;6145105;23;20609;-79
2023/04/06 01:37:43;;;;;;;8.63;3.72;;;;;;;;;;6145159;23;20024;-78
2023/04/06 01:40:10;;;;;;;7.05;3.85;;;;;;;;;;6145554;23;20092;-78
2023/04/06 01:42:35;;;;;;;7.32;3.88;;;;;;;;;;6094229;23;20028;-78
2023/04/06 01:45:01;;;;;;;8.23;3.83;;;;;;;;;;6144489;23;20095;-78
2023/04/06 01:47:26;;;;;;;7.40;3.78;;;;;;;;;;6093997;23;20029;-78
2023/04/06 01:49:52;;;;;;;9.18;4.43;;;;;;;;;;6095217;23;20018;-78
2023/04/06 01:52:17;;;;;;;7.75;3.70;;;;;;;;;;6118603;23;20021;-78
2023/04/06 01:54:43;;;;;;;8.88;4.05;;;;;;;;;;6119322;23;20356;-78
2023/04/06 01:57:10;;;;;;;7.15;3.60;;;;;;;;;;6144216;23;20022;-78
2023/04/06 01:59:35;;;;;;;6.55;4.10;;;;;;;;;;6119200;23;20444;-78
2023/04/06 02:02:01;;;;;;;8.18;3.83;;;;;;;;;;6142950;23;20020;-78
2023/04/06 02:04:26;;;;;;;7.40;3.92;;;;;;;;;;6118510;23;20032;-78
2023/04/06 02:06:51;;;;;;;8.15;3.47;;;;;;;;;;6119433;23;20021;-79
2023/04/06 02:09:17;;;;;;;8.38;4.38;;;;;;;;;;6118679;23;20017;-79
2023/04/06 02:11:42;;;;;;;6.97;4.05;;;;;;;;;;6118700;23;20084;-78
2023/04/06 02:14:08;;;;;;;8.57;3.83;;;;;;;;;;6119138;23;20017;-78
2023/04/06 02:16:33;;;;;;;7.50;4.28;;;;;;;;;;6144045;23;20006;-78
2023/04/06 02:18:58;;;;;;;8.38;4.20;;;;;;;;;;6145204;23;20021;-79
2023/04/06 02:21:24;;;;;;;8.32;4.25;;;;;;;;;;6145274;23;20013;-78
2023/04/06 02:23:49;;;;;;;7.45;3.78;;;;;;;;;;6145720;23;20010;-79
2023/04/06 02:26:15;;;;;;;6.90;4.10;;;;;;;;;;6145189;23;20109;-79
2023/04/06 02:28:41;;;;;;;7.28;4.20;;;;;;;;;;6094011;23;20017;-78
2023/04/06 02:31:09;;;;;;;8.55;4.07;;;;;;;;;;6118640;23;20177;-78
2023/04/06 02:33:34;;;;;;;8.52;4.20;;;;;;;;;;6118851;23;20117;-78
2023/04/06 02:36:00;;;;;;;7.95;4.00;;;;;;;;;;6118928;23;20017;-78
2023/04/06 02:38:25;;;;;;;7.20;3.97;;;;;;;;;;6145117;23;20021;-78
2023/04/06 02:40:50;;;;;;;7.07;4.13;;;;;;;;;;6118905;23;20048;-78
2023/04/06 02:43:17;;;;;;;9.68;3.97;;;;;;;;;;6144907;23;20057;-78
2023/04/06 02:45:42;;;;;;;8.57;4.25;;;;;;;;;;6117980;23;20067;-79
2023/04/06 02:48:08;;;;;;;7.20;3.75;;;;;;;;;;6144882;23;20045;-79
2023/04/06 02:50:33;;;;;;;7.38;3.72;;;;;;;;;;6093494;23;20396;-78
2023/04/06 02:52:58;;;;;;;6.72;3.85;;;;;;;;;;6118736;23;20033;-79
2023/04/06 02:55:24;;;;;;;8.75;4.50;;;;;;;;;;6118711;23;20013;-79
2023/04/06 02:57:49;;;;;;;8.90;3.92;;;;;;;;;;6094179;23;20460;-79
2023/04/06 03:00:15;;;;;;;8.65;3.97;;;;;;;;;;6145284;23;20017;-78
2023/04/06 03:02:40;;;;;;;6.95;4.20;;;;;;;;;;6143756;23;20395;-78
2023/04/06 03:05:06;;;;;;;8.02;3.80;;;;;;;;;;6118915;23;20096;-78
2023/04/06 03:07:32;;;;;;;8.32;4.25;;;;;;;;;;6144315;23;20454;-78
2023/04/06 03:09:57;;;;;;;6.70;3.65;;;;;;;;;;6145115;23;20449;-79
2023/04/06 03:12:22;;;;;;;6.93;3.90;;;;;;;;;;6144378;23;20535;-78
2023/04/06 03:14:48;;;;;;;6.93;4.07;;;;;;;;;;6120446;23;20021;-78
2023/04/06 03:17:14;;;;;;;6.35;3.50;;;;;;;;;;6094672;23;20452;-79
2023/04/06 03:19:40;;;;;;;8.85;4.70;;;;;;;;;;6120815;23;20017;-79
2023/04/06 03:22:05;;;;;;;7.53;4.20;;;;;;;;;;6146265;23;20343;-79
2023/04/06 03:24:30;;;;;;;7.35;4.07;;;;;;;;;;6122556;23;20009;-79
2023/04/06 03:26:56;;;;;;;7.82;4.18;;;;;;;;;;6097687;23;20037;-78
2023/04/06 03:29:21;;;;;;;6.53;3.88;;;;;;;;;;6147660;23;20013;-79
2023/04/06 03:31:47;;;;;;;8.15;3.83;;;;;;;;;;6149387;23;20021;-78
2023/04/06 03:34:12;;;;;;;9.77;4.22;;;;;;;;;;6122020;23;20343;-79
2023/04/06 03:36:38;;;;;;;6.70;4.13;;;;;;;;;;6121331;23;20013;-78
2023/04/06 03:39:03;;;;;;;7.53;3.97;;;;;;;;;;6147541;23;20017;-78
2023/04/06 03:41:29;;;;;;;7.07;3.92;;;;;;;;;;6120540;23;20024;-78
2023/04/06 03:43:54;;;;;;;7.60;3.97;;;;;;;;;;6096639;23;20031;-78
2023/04/06 03:46:20;;;;;;;10.30;4.97;;;;;;;;;;6120721;23;20017;-79
2023/04/06 03:48:47;;;;;;;7.90;4.28;;;;;;;;;;6120190;23;20024;-78
2023/04/06 03:51:13;;;;;;;7.28;4.13;;;;;;;;;;6145590;23;20048;-79
2023/04/06 03:53:38;;;;;;;7.38;3.75;;;;;;;;;;6146504;23;20024;-79
2023/04/06 03:56:04;;;;;;;7.60;4.10;;;;;;;;;;6145418;23;20013;-79
2023/04/06 03:58:30;;;;;;;6.63;3.95;;;;;;;;;;6146469;23;20021;-78
2023/04/06 04:00:56;;;;;;;8.05;4.00;;;;;;;;;;6145470;23;20463;-78
2023/04/06 04:03:23;;;;;;;6.47;3.90;;;;;;;;;;6147585;23;20005;-78
2023/04/06 04:05:50;;;;;;;8.40;3.90;;;;;;;;;;6146295;23;20021;-79
2023/04/06 04:08:15;;;;;;;6.33;3.87;;;;;;;;;;6120227;23;20021;-78
2023/04/06 04:10:40;;;;;;;8.07;3.85;;;;;;;;;;6119642;23;20443;-79
2023/04/06 04:13:06;;;;;;;7.68;4.10;;;;;;;;;;6095290;23;20021;-79
2023/04/06 04:15:31;;;;;;;6.90;4.13;;;;;;;;;;6145059;23;20017;-79
2023/04/06 04:17:57;;;;;;;8.18;3.83;;;;;;;;;;6095653;23;20088;-78
2023/04/06 04:20:22;;;;;;;7.25;4.05;;;;;;;;;;6145951;23;20017;-79
2023/04/06 04:22:47;;;;;;;12.77;4.47;;;;;;;;;;6120219;23;20020;-79
2023/04/06 04:25:13;;;;;;;7.00;4.13;;;;;;;;;;6119164;23;20021;-78
2023/04/06 04:27:38;;;;;;;6.20;3.80;;;;;;;;;;6120033;23;20017;-78
2023/04/06 04:30:06;;;;;;;8.88;4.35;;;;;;;;;;6146545;23;20024;-79
2023/04/06 04:32:31;;;;;;;11.10;4.75;;;;;;;;;;6118093;23;20186;-79
2023/04/06 04:34:56;;;;;;;7.47;4.22;;;;;;;;;;6096075;23;20518;-78
2023/04/06 04:37:22;;;;;;;8.77;4.30;;;;;;;;;;6119335;23;20351;-77
2023/04/06 04:39:47;;;;;;;7.10;4.57;;;;;;;;;;6146659;23;20018;-78
2023/04/06 04:42:13;;;;;;;11.90;4.30;;;;;;;;;;6119258;23;20009;-77
2023/04/06 04:44:38;;;;;;;7.50;4.28;;;;;;;;;;6119192;23;20053;-78
2023/04/06 04:47:04;;;;;;;8.65;4.63;;;;;;;;;;6144831;23;20140;-77
2023/04/06 04:49:30;;;;;;;8.38;4.82;;;;;;;;;;6119788;23;20456;-78
2023/04/06 04:51:55;;;;;;;7.78;4.60;;;;;;;;;;6094374;23;20373;-78
2023/04/06 04:54:21;;;;;;;11.10;4.80;;;;;;;;;;6146116;23;20359;-78
2023/04/06 04:56:46;;;;;;;12.07;5.25;;;;;;;;;;6119274;23;20017;-78
2023/04/06 04:59:11;;;;;;;8.20;5.05;;;;;;;;;;6119631;23;20026;-77
2023/04/06 05:01:37;;;;;;;8.55;5.25;;;;;;;;;;6118979;23;20391;-78
2023/04/06 05:04:02;;;;;;;8.75;4.72;;;;;;;;;;6145106;23;20044;-78
2023/04/06 05:06:28;;;;;;;9.45;4.90;;;;;;;;;;6119495;23;20074;-78
2023/04/06 05:08:53;;;;;;;10.77;5.50;;;;;;;;;;6145775;23;20040;-79
2023/04/06 05:11:18;;;;;;;9.07;5.38;;;;;;;;;;6119150;23;20017;-78
2023/04/06 05:13:44;;;;;;;11.73;6.15;;;;;;;;;;6094613;23;20021;-78
2023/04/06 05:16:09;;;;;;;9.50;6.03;;;;;;;;;;6118250;23;20518;-78
2023/04/06 05:18:35;;;;;;;8.98;5.25;;;;;;;;;;6118646;23;20079;-78
2023/04/06 05:21:00;;;;;;;11.95;6.15;;;;;;;;;;6145102;23;20009;-78
2023/04/06 05:23:26;;;;;;;10.52;6.00;;;;;;;;;;6119286;23;20020;-78
2023/04/06 05:25:52;;;;;;;14.23;7.10;;;;;;;;;;6095579;23;20092;-77
2023/04/06 05:28:17;;;;;;;8.90;6.40;;;;;;;;;;6118267;23;20017;-77
2023/04/06 05:30:44;;;;;;;9.50;5.93;;;;;;;;;;6144655;23;20020;-77
2023/04/06 05:33:10;;;;;;;10.50;6.32;;;;;;;;;;6119028;23;20530;-79
2023/04/06 05:35:35;;;;;;;12.18;7.38;;;;;;;;;;6144550;23;20013;-78
2023/04/06 05:38:01;;;;;;;10.95;6.75;;;;;;;;;;6119334;23;20013;-79
2023/04/06 05:40:26;;;;;;;13.20;7.28;;;;;;;;;;6118809;23;20013;-78
2023/04/06 05:42:52;;;;;;;11.38;7.28;;;;;;;;;;6095712;23;20045;-78
2023/04/06 05:45:18;;;;;;;12.98;7.07;;;;;;;;;;6118555;23;20021;-78
2023/04/06 05:47:44;;;;;;;11.43;7.10;;;;;;;;;;6119258;23;20040;-78
2023/04/06 05:50:10;;;;;;;12.85;7.55;;;;;;;;;;6118738;23;20022;-78
2023/04/06 05:52:36;;;;;;;13.70;7.18;;;;;;;;;;6118148;23;20024;-78
2023/04/06 05:55:02;;;;;;;13.00;7.60;;;;;;;;;;6119007;23;20013;-78
2023/04/06 05:57:27;;;;;;;10.95;7.20;;;;;;;;;;6144214;23;20017;-78
2023/04/06 05:59:52;;;;;;;11.18;6.72;;;;;;;;;;6119904;23;20017;-78
2023/04/06 06:02:18;;;;;;;12.80;6.82;;;;;;;;;;6117962;23;20017;-78
2023/04/06 06:04:43;;;;;;;11.20;6.28;;;;;;;;;;6145630;23;20013;-78
2023/04/06 06:07:09;;;;;;;11.38;6.50;;;;;;;;;;6145153;23;20064;-78
2023/04/06 06:09:34;;;;;;;10.00;6.18;;;;;;;;;;6145533;23;20522;-78
2023/04/06 06:12:00;;;;;;;10.20;6.22;;;;;;;;;;6094106;23;20071;-78
2023/04/06 06:14:28;;;;;;;10.18;5.82;;;;;;;;;;6118697;23;20017;-81
2023/04/06 06:16:53;;;;;;;8.18;5.18;;;;;;;;;;6145019;23;20080;-82
2023/04/06 06:19:19;;;;;;;10.23;5.90;;;;;;;;;;6118775;23;20013;-81
2023/04/06 06:21:44;;;;;;;11.15;5.60;;;;;;;;;;6093726;23;20045;-81
2023/04/06 06:24:10;;;;;;;11.60;5.85;;;;;;;;;;6118246;23;20022;-82
2023/04/06 06:26:36;;;;;;;10.15;5.63;;;;;;;;;;6118470;23;20471;-80
2023/04/06 06:29:04;;;;;;;12.02;5.90;;;;;;;;;;6143876;23;20041;-81
2023/04/06 06:31:30;;;;;;;;;;;;;;;;;;6118843;23;20156;-80
2023/04/06 06:33:55;;;;;;;8.50;4.95;;;;;;;;;;6118315;23;19960;-79
2023/04/06 06:36:21;;;;;;;9.73;5.30;;;;;;;;;;6118012;23;20019;-80
2023/04/06 06:38:46;;;;;;;9.20;5.05;;;;;;;;;;6119863;23;20093;-80
2023/04/06 06:41:12;;;;;;;7.88;4.88;;;;;;;;;;6143186;23;20076;-81
2023/04/06 06:43:37;;;;;;;9.65;5.20;;;;;;;;;;6116926;23;20025;-81
2023/04/06 06:46:03;;;;;;;9.32;4.95;;;;;;;;;;6092653;23;20017;-83
2023/04/06 06:48:29;;;;;;;7.85;4.78;;;;;;;;;;6148462;23;20069;-82
2023/04/06 06:50:55;;;;;;;13.82;5.05;;;;;;;;;;6125372;23;20038;-84
2023/04/06 06:53:20;;;;;;;9.32;4.85;;;;;;;;;;6098344;23;20028;-81
2023/04/06 06:55:46;;;;;;;8.18;4.32;;;;;;;;;;6120222;23;20025;-81
2023/04/06 06:58:12;;;;;;;8.07;4.60;;;;;;;;;;6146702;23;20021;-82
2023/04/06 07:00:37;;;;;;;7.25;4.22;;;;;;;;;;6119990;23;20456;-81
2023/04/06 07:03:02;;;;;;;7.22;4.32;;;;;;;;;;6096264;23;20375;-81
2023/04/06 07:05:28;;;;;;;8.40;4.60;;;;;;;;;;6120440;23;20396;-80
2023/04/06 07:07:55;;;;;;;7.78;4.50;;;;;;;;;;6146942;23;20341;-80
2023/04/06 07:10:20;;;;;;;6.95;3.90;;;;;;;;;;6095803;23;20018;-80
2023/04/06 07:12:46;;;;;;;6.32;3.50;;;;;;;;;;6146261;23;20017;-80
2023/04/06 07:15:11;;;;;;;8.10;3.80;;;;;;;;;;6120678;23;20029;-80
2023/04/06 07:17:37;;;;;;;8.60;4.22;;;;;;;;;;6120164;23;20380;-80
2023/04/06 07:20:03;;;;;;;8.98;3.50;;;;;;;;;;6119862;23;20474;-80
2023/04/06 07:22:28;;;;;;;5.22;3.03;;;;;;;;;;6119421;23;20490;-80
2023/04/06 07:24:54;;;;;;;6.68;3.30;;;;;;;;;;6122034;23;20454;-81
2023/04/06 07:27:20;;;;;;;6.82;3.15;;;;;;;;;;6120177;23;20092;-80
2023/04/06 07:29:45;;;;;;;7.05;3.33;;;;;;;;;;6120849;23;20105;-80
2023/04/06 07:32:11;;;;;;;4.82;3.00;;;;;;;;;;6118276;23;20024;-80
2023/04/06 07:34:36;;;;;;;6.32;3.10;;;;;;;;;;6096258;23;20092;-81
2023/04/06 07:37:02;;;;;;;6.63;3.25;;;;;;;;;;6095083;23;20325;-80
2023/04/06 07:39:28;;;;;;;5.88;3.15;;;;;;;;;;6120746;23;20030;-80
2023/04/06 07:41:55;;;;;;;6.82;3.38;;;;;;;;;;6120313;23;20561;-80
2023/04/06 07:44:20;;;;;;;5.00;2.78;;;;;;;;;;6145623;23;20084;-80
2023/04/06 07:46:45;;;;;;;7.20;2.95;;;;;;;;;;6146557;23;20377;-81
2023/04/06 07:49:11;;;;;;;7.30;2.70;;;;;;;;;;6095988;23;20048;-80
2023/04/06 07:51:37;;;;;;;5.07;2.28;;;;;;;;;;6119987;23;20097;-81
2023/04/06 07:54:03;;;;;;;4.43;2.63;;;;;;;;;;6147117;23;20037;-80
2023/04/06 07:56:28;;;;;;;4.45;2.50;;;;;;;;;;6095058;23;20447;-80
2023/04/06 07:58:57;;;;;;;5.70;2.92;;;;;;;;;;6121344;23;20017;-80
2023/04/06 08:01:23;;;;;;;6.55;2.53;;;;;;;;;;6145615;23;20387;-80
2023/04/06 08:03:50;;;;;;;4.72;2.20;;;;;;;;;;6121111;23;20013;-80
2023/04/06 08:06:15;;;;;;;4.43;2.10;;;;;;;;;;6094838;23;20029;-80
2023/04/06 08:08:42;;;;;;;4.80;2.42;;;;;;;;;;6095426;23;20100;-79
2023/04/06 08:11:07;;;;;;;5.80;2.55;;;;;;;;;;6119590;23;20024;-79
2023/04/06 08:13:33;;;;;;;4.35;2.03;;;;;;;;;;6119821;23;20459;-80
2023/04/06 08:15:59;;;;;;;4.13;2.10;;;;;;;;;;6119012;23;20096;-80
2023/04/06 08:18:25;;;;;;;4.68;2.35;;;;;;;;;;6146739;23;20041;-80
2023/04/06 08:20:50;;;;;;;4.05;1.92;;;;;;;;;;6120003;23;20137;-80
2023/04/06 08:23:16;;;;;;;5.80;2.20;;;;;;;;;;6119746;23;20037;-80
2023/04/06 08:25:42;;;;;;;7.22;2.00;;;;;;;;;;6145767;23;20661;-79
2023/04/06 08:28:09;;;;;;;5.90;2.40;;;;;;;;;;6092998;23;20045;-80
2023/04/06 08:30:34;;;;;;;5.18;2.33;;;;;;;;;;6120230;23;20395;-80
2023/04/06 08:33:00;;;;;;;3.60;2.00;;;;;;;;;;6095132;23;20037;-80
2023/04/06 08:35:26;;;;;;;3.83;1.92;;;;;;;;;;6119900;23;20017;-80
2023/04/06 08:37:51;;;;;;;5.78;2.13;;;;;;;;;;6120184;23;20072;-80
2023/04/06 08:40:17;;;;;;;5.20;2.45;;;;;;;;;;6119682;23;20025;-79
2023/04/06 08:42:49;;;;;;;3.75;1.90;;;;;;;;;;6119724;23;20017;-80
2023/04/06 08:45:16;;;;;;;2.45;1.20;;;;;;;;;;6095415;23;20031;-80
2023/04/06 08:47:42;;;;;;;4.20;1.83;;;;;;;;;;6119376;23;20095;-80
2023/04/06 08:50:08;;;;;;;3.45;1.65;;;;;;;;;;6120299;23;20313;-80
2023/04/06 08:52:36;;;;;;;3.17;1.65;;;;;;;;;;6118641;23;20054;-80
2023/04/06 08:55:02;;;;;;;3.97;1.60;;;;;;;;;;6120229;23;20071;-79
2023/04/06 08:57:27;;;;;;;3.75;1.60;;;;;;;;;;6145822;23;20017;-80
2023/04/06 08:59:54;;;;;;;3.85;2.05;;;;;;;;;;6120722;23;20100;-80
2023/04/06 09:02:19;;;;;;;3.67;1.60;;;;;;;;;;6117977;23;20020;-80
2023/04/06 09:04:49;;;;;;;3.88;1.50;;;;;;;;;;6120077;23;20025;-79
2023/04/06 09:07:15;;;;;;;3.05;1.40;;;;;;;;;;6094144;23;20447;-79
2023/04/06 09:09:47;;;;;;;2.85;1.38;;;;;;;;;;6095726;23;20530;-79
2023/04/06 09:12:28;;;;;;;5.65;1.58;;;;;;;;;;6120034;23;20483;-81
2023/04/06 09:14:55;;;;;;;2.85;1.30;;;;;;;;;;6146156;23;20400;-82
2023/04/06 09:17:33;;;;;;;2.87;1.30;;;;;;;;;;6118747;23;20013;-81
2023/04/06 09:19:59;;;;;;;;;;;;;;;;;;6120082;23;20079;-81
2023/04/06 09:22:25;;;;;;;3.03;1.23;;;;;;;;;;6143332;23;19912;-81
2023/04/06 09:24:52;;;;;;;4.07;1.40;;;;;;;;;;6145947;23;20014;-81
2023/04/06 09:27:30;;;;;;;3.40;1.30;;;;;;;;;;6104410;23;20013;-81
2023/04/06 09:30:13;;;;;;;3.88;1.30;;;;;;;;;;6095788;23;20024;-81
2023/04/06 09:33:05;;;;;;;4.03;1.40;;;;;;;;;;6144042;23;20020;-81
2023/04/06 09:35:32;;;;;;;4.65;1.40;;;;;;;;;;6138891;23;20485;-81
2023/04/06 09:37:58;;;;;;;;;;;;;;;;;;6095570;23;20029;-81
2023/04/06 09:40:24;;;;;;;2.90;1.00;;;;;;;;;;6169048;23;19936;-81
2023/04/06 09:42:52;;;;;;;3.33;1.25;;;;;;;;;;6118643;23;20140;-81
2023/04/06 09:45:17;;;;;;;3.05;1.40;;;;;;;;;;6118753;23;20017;-81
2023/04/06 09:47:45;;;;;;;3.55;1.17;;;;;;;;;;6094845;23;20129;-81
2023/04/06 09:50:14;;;;;;;3.05;1.35;;;;;;;;;;6118547;23;20107;-80
2023/04/06 09:52:50;;;;;;;2.72;1.23;;;;;;;;;;6092012;23;20172;-81
2023/04/06 09:55:30;;;;;;;2.75;1.25;;;;;;;;;;6145072;23;20013;-81
2023/04/06 09:58:05;;;;;;;4.72;1.42;;;;;;;;;;6144803;23;20013;-80
2023/04/06 10:00:35;;;;;;;2.95;1.48;;;;;;;;;;6094120;23;20443;-79
2023/04/06 10:03:14;;;;;;;3.33;1.40;;;;;;;;;;6093953;23;20013;-80
2023/04/06 10:05:53;;;;;;;2.97;1.60;;;;;;;;;;6145247;23;20018;-79
2023/04/06 10:08:19;;;;;;;3.65;1.40;;;;;;;;;;6118342;23;20426;-79
2023/04/06 10:10:44;;;;;;;2.58;1.02;;;;;;;;;;6094356;23;20081;-82
2023/04/06 10:13:11;;;;;;;2.80;1.35;;;;;;;;;;6118011;23;20029;-81
2023/04/06 10:15:38;;;;;;;4.32;1.33;;;;;;;;;;6094259;23;20069;-79
2023/04/06 10:18:03;;;;;;;2.95;1.33;;;;;;;;;;6119329;23;20084;-79
2023/04/06 10:20:29;;;;;;;2.75;1.30;;;;;;;;;;6118603;23;20021;-80
2023/04/06 10:23:15;;;;;;;2.97;1.20;;;;;;;;;;6119767;23;20089;-80
2023/04/06 10:25:57;;;;;;;2.95;1.35;;;;;;;;;;6096015;23;20211;-80
2023/04/06 10:28:24;;;;;;;2.95;1.25;;;;;;;;;;6121104;23;20598;-80
2023/04/06 10:30:56;;;;;;;3.25;1.40;;;;;;;;;;6120885;23;20312;-79
2023/04/06 10:33:22;;;;;;;3.53;1.45;;;;;;;;;;6120771;23;20392;-80
2023/04/06 10:35:47;;;;;;;7.07;2.35;;;;;;;;;;6145849;23;20014;-79
2023/04/06 10:38:20;;;;;;;2.95;1.35;;;;;;;;;;6120990;23;20017;-79
2023/04/06 10:40:48;;;;;;;4.00;1.27;;;;;;;;;;6121938;23;20025;-80
2023/04/06 10:43:19;;;;;;;2.88;1.30;;;;;;;;;;6146846;23;20025;-80
2023/04/06 10:45:45;;;;;;;4.15;1.50;;;;;;;;;;6120072;23;20598;-80
2023/04/06 10:48:15;;;;;;;3.38;1.40;;;;;;;;;;6120766;23;20021;-80
2023/04/06 10:50:43;;;;;;;2.30;1.17;;;;;;;;;;6120100;23;20017;-80
2023/04/06 10:53:08;;;;;;;3.42;1.50;;;;;;;;;;6120490;23;20668;-79
2023/04/06 10:55:34;;;;;;;3.33;1.30;;;;;;;;;;6120500;23;20067;-80
2023/04/06 10:58:00;;;;;;;2.88;1.20;;;;;;;;;;6120526;23;20032;-80
2023/04/06 11:00:26;;;;;;;2.50;1.13;;;;;;;;;;6120958;23;20017;-80
2023/04/06 11:02:52;;;;;;;4.13;1.42;;;;;;;;;;6095943;23;20028;-81
2023/04/06 11:05:17;;;;;;;2.78;1.20;;;;;;;;;;6146047;23;20017;-81
2023/04/06 11:07:44;;;;;;;2.45;1.05;;;;;;;;;;6121145;23;20328;-80
2023/04/06 11:10:10;;;;;;;2.63;1.17;;;;;;;;;;6146857;23;20096;-80
2023/04/06 11:12:35;;;;;;;4.07;1.48;;;;;;;;;;6094943;23;20117;-79
2023/04/06 11:15:04;;;;;;;3.40;1.50;;;;;;;;;;6120672;23;20061;-81
2023/04/06 11:17:30;;;;;;;2.78;1.33;;;;;;;;;;6120620;23;20077;-81
2023/04/06 11:19:57;;;;;;;2.63;1.20;;;;;;;;;;6147147;23;20017;-80
2023/04/06 11:22:22;;;;;;;2.80;1.48;;;;;;;;;;6146428;23;20017;-80
2023/04/06 11:24:48;;;;;;;2.97;1.40;;;;;;;;;;6096501;23;20021;-80
2023/04/06 11:27:16;;;;;;;4.25;1.70;;;;;;;;;;6119514;23;20097;-80
2023/04/06 11:29:42;;;;;;;3.10;1.42;;;;;;;;;;6120538;23;20072;-80
2023/04/06 11:32:08;;;;;;;3.42;1.27;;;;;;;;;;6120280;23;20325;-80
2023/04/06 11:34:38;;;;;;;3.42;1.40;;;;;;;;;;6120047;23;20044;-80
2023/04/06 11:37:07;;;;;;;3.03;1.50;;;;;;;;;;6120274;23;20351;-80
2023/04/06 11:39:39;;;;;;;3.20;1.48;;;;;;;;;;6120280;23;20605;-80
2023/04/06 11:42:04;;;;;;;2.58;1.27;;;;;;;;;;6145316;23;20451;-80
2023/04/06 11:44:38;;;;;;;2.53;1.42;;;;;;;;;;6119645;23;20022;-80
2023/04/06 11:47:05;;;;;;;3.35;1.70;;;;;;;;;;6145802;23;20033;-80
2023/04/06 11:49:31;;;;;;;;;;;;;;;;;;6120071;23;20072;-80
2023/04/06 11:51:58;;;;;;;2.80;1.20;;;;;;;;;;6168813;23;19913;-80
2023/04/06 11:54:30;;;;;;;3.20;1.55;;;;;;;;;;6121380;23;20475;-79
2023/04/06 11:56:56;;;;;;;2.40;1.10;;;;;;;;;;6119823;23;20023;-80
2023/04/06 11:59:22;;;;;;;2.72;1.27;;;;;;;;;;6120876;23;20017;-81
2023/04/06 12:01:48;;;;;;;3.40;1.75;;;;;;;;;;6096181;23;20067;-80
2023/04/06 12:04:14;;;;;;;3.67;1.60;;;;;;;;;;6146628;23;20026;-80
2023/04/06 12:06:39;;;;;;;4.55;1.65;;;;;;;;;;6119952;23;20440;-81
2023/04/06 12:09:05;;;;;;;3.80;1.70;;;;;;;;;;6119686;23;20033;-80
2023/04/06 12:11:30;;;;;;;4.43;1.70;;;;;;;;;;6095262;23;20021;-80
2023/04/06 12:13:56;;;;;;;3.08;1.45;;;;;;;;;;6119707;23;20021;-80
2023/04/06 12:16:21;;;;;;;3.78;1.83;;;;;;;;;;6120347;23;20020;-79
2023/04/06 12:18:46;;;;;;;3.20;1.70;;;;;;;;;;6146215;23;20037;-79
2023/04/06 12:21:12;;;;;;;3.97;1.80;;;;;;;;;;6145094;23;20088;-80
2023/04/06 12:23:37;;;;;;;3.05;1.60;;;;;;;;;;6119851;23;20018;-80
2023/04/06 12:26:03;;;;;;;3.28;1.73;;;;;;;;;;6145418;23;20455;-79
2023/04/06 12:28:28;;;;;;;3.50;1.60;;;;;;;;;;6120176;23;20017;-80
2023/04/06 12:30:55;;;;;;;3.47;1.60;;;;;;;;;;6119864;23;20009;-80
2023/04/06 12:33:21;;;;;;;4.05;2.13;;;;;;;;;;6119515;23;20092;-80
2023/04/06 12:35:46;;;;;;;3.28;1.52;;;;;;;;;;6145467;23;20052;-79
2023/04/06 12:38:11;;;;;;;4.18;2.28;;;;;;;;;;6120433;23;20014;-79
2023/04/06 12:40:40;;;;;;;5.40;2.00;;;;;;;;;;6144826;23;20033;-79
2023/04/06 12:43:05;;;;;;;4.22;2.10;;;;;;;;;;6145913;23;20121;-80
2023/04/06 12:45:31;;;;;;;3.90;2.00;;;;;;;;;;6144312;23;20097;-80
2023/04/06 12:47:57;;;;;;;4.25;2.20;;;;;;;;;;6146067;23;20009;-80
2023/04/06 12:50:22;;;;;;;3.35;1.77;;;;;;;;;;6146218;23;20544;-80
2023/04/06 12:52:48;;;;;;;4.18;1.92;;;;;;;;;;6119942;23;20022;-80
2023/04/06 12:55:13;;;;;;;3.88;2.03;;;;;;;;;;6145230;23;20352;-80
2023/04/06 12:57:40;;;;;;;3.25;1.75;;;;;;;;;;6119558;23;20440;-80
2023/04/06 13:00:06;;;;;;;3.78;2.10;;;;;;;;;;6120495;23;20084;-80
2023/04/06 13:02:31;;;;;;;3.25;2.03;;;;;;;;;;6093928;23;20564;-80
2023/04/06 13:04:57;;;;;;;3.47;2.00;;;;;;;;;;6095143;23;20009;-80
2023/04/06 13:07:22;;;;;;;3.35;1.83;;;;;;;;;;6119232;23;20013;-80
2023/04/06 13:09:49;;;;;;;3.10;1.80;;;;;;;;;;6095592;23;20021;-80
2023/04/06 13:12:15;;;;;;;3.80;1.87;;;;;;;;;;6094348;23;20049;-80
2023/04/06 13:14:40;;;;;;;3.83;1.85;;;;;;;;;;6120134;23;20451;-79
2023/04/06 13:17:06;;;;;;;4.95;2.15;;;;;;;;;;6145036;23;20021;-80
2023/04/06 13:19:32;;;;;;;4.65;2.10;;;;;;;;;;6119617;23;20021;-80
2023/04/06 13:21:58;;;;;;;4.03;1.88;;;;;;;;;;6118712;23;20037;-80
2023/04/06 13:24:23;;;;;;;3.45;1.90;;;;;;;;;;6094408;23;20336;-80
2023/04/06 13:26:49;;;;;;;3.83;2.22;;;;;;;;;;6118559;23;20013;-80
2023/04/06 13:29:14;;;;;;;4.57;1.98;;;;;;;;;;6119073;23;20021;-80
2023/04/06 13:31:40;;;;;;;4.70;2.45;;;;;;;;;;6118500;23;20013;-80
2023/04/06 13:34:06;;;;;;;5.30;2.50;;;;;;;;;;6095097;23;20048;-80
2023/04/06 13:36:32;;;;;;;3.67;2.10;;;;;;;;;;6144428;23;20442;-80
2023/04/06 13:38:58;;;;;;;4.85;2.17;;;;;;;;;;6118974;23;20046;-80
2023/04/06 13:41:25;;;;;;;4.30;2.40;;;;;;;;;;6094935;23;20083;-80
2023/04/06 13:43:51;;;;;;;4.78;2.30;;;;;;;;;;6119626;23;20363;-80
2023/04/06 13:46:16;;;;;;;3.75;1.90;;;;;;;;;;6118555;23;20028;-81
2023/04/06 13:48:42;;;;;;;3.70;2.10;;;;;;;;;;6144609;23;20009;-79
2023/04/06 13:51:12;;;;;;;4.35;2.47;;;;;;;;;;6094205;23;20042;-80
2023/04/06 13:53:37;;;;;;;4.05;2.22;;;;;;;;;;6094551;23;20025;-79
2023/04/06 13:56:03;;;;;;;4.15;2.25;;;;;;;;;;6119495;23;20016;-80
2023/04/06 13:58:28;;;;;;;5.30;2.17;;;;;;;;;;6094620;23;20014;-80
2023/04/06 14:00:54;;;;;;;4.15;2.40;;;;;;;;;;6095099;23;20039;-80
2023/04/06 14:03:20;;;;;;;3.40;2.10;;;;;;;;;;6145427;23;20018;-80
2023/04/06 14:05:45;;;;;;;3.60;2.00;;;;;;;;;;6118584;23;20022;-80
2023/04/06 14:08:11;;;;;;;4.57;2.00;;;;;;;;;;6118648;23;20017;-80
2023/04/06 14:10:38;;;;;;;4.95;2.67;;;;;;;;;;6144830;23;20491;-80
2023/04/06 14:13:04;;;;;;;9.02;4.15;;;;;;;;;;6144668;23;20080;-80
2023/04/06 14:15:29;;;;;;;4.10;2.15;;;;;;;;;;6094280;23;20041;-80
2023/04/06 14:17:55;;;;;;;5.93;3.00;;;;;;;;;;6145850;23;20097;-80
2023/04/06 14:20:21;;;;;;;4.30;1.90;;;;;;;;;;6144588;23;20448;-81
2023/04/06 14:22:46;;;;;;;3.67;1.95;;;;;;;;;;6145579;23;20065;-79
2023/04/06 14:25:12;;;;;;;4.43;2.10;;;;;;;;;;6104181;23;20044;-80
2023/04/06 14:27:38;;;;;;;5.25;2.10;;;;;;;;;;6131072;23;20046;-81
2023/04/06 14:30:04;;;;;;;4.55;1.90;;;;;;;;;;6094055;23;20469;-79
2023/04/06 14:32:29;;;;;;;4.90;1.90;;;;;;;;;;6117260;23;20097;-79
2023/04/06 14:34:55;;;;;;;3.70;2.00;;;;;;;;;;6118393;23;20032;-80
2023/04/06 14:37:22;;;;;;;4.30;1.90;;;;;;;;;;6143702;23;20013;-80